createdAt,value
2023-04-12T00:01:07.636Z,10.18
2023-04-12T00:03:34.645Z,10.20
2023-04-12T00:06:03.377Z,11.48
2023-04-12T00:08:33.306Z,11.90
2023-04-12T00:11:00.942Z,11.65
2023-04-12T00:13:28.290Z,13.10
2023-04-12T00:15:55.443Z,12.43
2023-04-12T00:18:25.539Z,11.98
2023-04-12T00:20:53.327Z,12.73
2023-04-12T00:23:21.033Z,13.00
2023-04-12T00:25:48.046Z,12.50
2023-04-12T00:28:16.117Z,13.50
2023-04-12T00:30:45.969Z,13.70
2023-04-12T00:33:12.816Z,14.57
2023-04-12T00:35:39.749Z,13.60
2023-04-12T00:38:10.697Z,13.95
2023-04-12T00:40:41.704Z,14.30
2023-04-12T00:43:10.272Z,14.15
2023-04-12T00:45:39.963Z,13.90
2023-04-12T00:48:06.910Z,14.30
2023-04-12T00:50:36.907Z,14.43
2023-04-12T00:53:04.107Z,14.63
2023-04-12T00:55:31.841Z,13.93
2023-04-12T00:57:59.549Z,14.30
2023-04-12T01:00:26.688Z,13.60
2023-04-12T01:02:53.824Z,14.70
2023-04-12T01:05:22.669Z,14.73
2023-04-12T01:08:05.051Z,14.63
2023-04-12T01:10:32.338Z,14.10
2023-04-12T01:12:59.082Z,14.52
2023-04-12T01:15:26.552Z,15.18
2023-04-12T01:18:02.928Z,15.18
2023-04-12T01:20:31.842Z,16.35
2023-04-12T01:23:01.413Z,14.77
2023-04-12T01:25:34.529Z,14.93
2023-04-12T01:28:03.719Z,14.75
2023-04-12T01:30:31.444Z,14.75
2023-04-12T01:33:01.082Z,15.18
2023-04-12T01:35:34.904Z,14.52
2023-04-12T01:38:03.304Z,14.77
2023-04-12T01:40:31.174Z,14.48
2023-04-12T01:43:10.506Z,14.52
2023-04-12T01:45:38.786Z,15.60
2023-04-12T01:48:07.592Z,14.68
2023-04-12T01:50:37.554Z,14.98
2023-04-12T01:53:23.105Z,16.33
2023-04-12T01:55:50.838Z,15.60
2023-04-12T01:58:21.319Z,15.32
2023-04-12T02:00:49.294Z,16.13
2023-04-12T02:03:18.565Z,16.88
2023-04-12T02:05:46.193Z,16.05
2023-04-12T02:08:13.174Z,16.25
2023-04-12T02:10:40.581Z,16.75
2023-04-12T02:13:07.396Z,16.23
2023-04-12T02:15:34.385Z,16.58
2023-04-12T02:18:01.751Z,17.92
2023-04-12T02:20:29.428Z,16.10
2023-04-12T02:22:56.737Z,17.15
2023-04-12T02:25:24.276Z,16.45
2023-04-12T02:27:58.214Z,17.45
2023-04-12T02:30:25.311Z,18.10
2023-04-12T02:32:53.674Z,18.20
2023-04-12T02:35:26.015Z,19.42
2023-04-12T02:38:03.747Z,17.17
2023-04-12T02:40:30.812Z,17.85
2023-04-12T02:42:58.497Z,18.10
2023-04-12T02:45:27.285Z,17.98
2023-04-12T02:47:55.203Z,18.42
2023-04-12T02:50:26.067Z,18.30
2023-04-12T02:53:00.416Z,19.42
2023-04-12T02:55:27.435Z,20.05
2023-04-12T02:57:55.123Z,18.67
2023-04-12T03:00:23.457Z,19.92
2023-04-12T03:02:53.403Z,19.00
2023-04-12T03:05:26.041Z,18.98
2023-04-12T03:07:52.931Z,21.35
2023-04-12T03:10:25.502Z,20.38
2023-04-12T03:13:01.686Z,19.75
2023-04-12T03:15:37.449Z,19.02
2023-04-12T03:18:04.805Z,20.42
2023-04-12T03:23:08.967Z,19.85
2023-04-12T03:25:39.184Z,19.92
2023-04-12T03:28:24.717Z,19.58
2023-04-12T03:30:54.393Z,20.52
2023-04-12T03:33:25.231Z,19.67
2023-04-12T03:35:56.367Z,20.90
2023-04-12T03:38:23.959Z,20.08
2023-04-12T03:40:51.392Z,20.33
2023-04-12T03:45:51.816Z,20.10
2023-04-12T03:48:19.063Z,19.55
2023-04-12T03:50:46.161Z,21.60
2023-04-12T03:53:20.516Z,19.60
2023-04-12T03:55:48.491Z,20.42
2023-04-12T03:58:16.496Z,21.90
2023-04-12T04:00:46.686Z,20.65
2023-04-12T04:03:14.472Z,22.25
2023-04-12T04:05:51.130Z,21.13
2023-04-12T04:08:21.153Z,23.38
2023-04-12T04:10:52.548Z,21.38
2023-04-12T04:13:22.478Z,21.60
2023-04-12T04:15:59.736Z,21.17
2023-04-12T04:18:28.058Z,20.58
2023-04-12T04:20:55.475Z,20.38
2023-04-12T04:23:23.591Z,20.23
2023-04-12T04:25:53.519Z,20.67
2023-04-12T04:28:21.411Z,20.75
2023-04-12T04:30:51.664Z,22.02
2023-04-12T04:33:20.067Z,22.45
2023-04-12T04:35:47.114Z,22.98
2023-04-12T04:38:26.583Z,23.08
2023-04-12T04:41:04.747Z,23.30
2023-04-12T04:43:46.957Z,22.55
2023-04-12T04:46:17.246Z,21.17
2023-04-12T04:48:44.105Z,21.55
2023-04-12T04:51:10.903Z,20.75
2023-04-12T04:53:38.493Z,21.08
2023-04-12T04:56:06.626Z,20.98
2023-04-12T04:58:35.984Z,20.90
2023-04-12T05:01:03.564Z,22.13
2023-04-12T05:03:31.292Z,21.52
2023-04-12T05:06:00.620Z,20.75
2023-04-12T05:08:28.803Z,19.98
2023-04-12T05:10:57.368Z,21.23
2023-04-12T05:13:28.438Z,21.75
2023-04-12T05:15:55.388Z,20.92
2023-04-12T05:18:22.688Z,20.95
2023-04-12T05:20:51.974Z,20.85
2023-04-12T05:23:19.482Z,20.75
2023-04-12T05:25:48.403Z,21.15
2023-04-12T05:28:17.592Z,21.17
2023-04-12T05:30:45.521Z,20.33
2023-04-12T05:33:16.410Z,19.98
2023-04-12T05:35:46.655Z,20.77
2023-04-12T05:38:13.625Z,21.92
2023-04-12T05:40:42.120Z,20.45
2023-04-12T05:43:12.979Z,20.88
2023-04-12T05:45:40.640Z,21.08
2023-04-12T05:48:08.810Z,21.00
2023-04-12T05:50:36.006Z,21.63
2023-04-12T05:53:03.525Z,20.60
2023-04-12T05:55:33.568Z,20.92
2023-04-12T05:58:02.799Z,20.85
2023-04-12T06:00:32.162Z,20.60
2023-04-12T06:03:04.784Z,19.65
2023-04-12T06:05:44.871Z,20.90
2023-04-12T06:08:18.269Z,20.20
2023-04-12T06:10:54.104Z,20.52
2023-04-12T06:13:27.232Z,20.58
2023-04-12T06:16:01.852Z,20.42
2023-04-12T06:21:19.939Z,20.00
2023-04-12T06:23:51.196Z,20.60
2023-04-12T06:26:39.785Z,19.48
2023-04-12T06:29:34.304Z,19.50
2023-04-12T06:32:05.523Z,19.58
2023-04-12T06:34:34.536Z,20.20
2023-04-12T06:37:11.281Z,19.47
2023-04-12T06:39:41.443Z,18.42
2023-04-12T06:42:08.331Z,19.40
2023-04-12T06:44:38.770Z,19.40
2023-04-12T06:47:05.899Z,19.42
2023-04-12T06:49:32.869Z,19.33
2023-04-12T06:51:59.632Z,18.98
2023-04-12T06:54:26.726Z,19.50
2023-04-12T06:56:53.550Z,18.13
2023-04-12T06:59:20.816Z,17.52
2023-04-12T07:01:48.260Z,18.05
2023-04-12T07:04:16.889Z,17.55
2023-04-12T07:06:44.621Z,16.63
2023-04-12T07:09:11.834Z,17.63
2023-04-12T07:11:39.884Z,18.08
2023-04-12T07:14:07.069Z,17.63
2023-04-12T07:16:34.323Z,18.05
2023-04-12T07:19:01.422Z,18.23
2023-04-12T07:21:28.252Z,17.60
2023-04-12T07:23:55.983Z,17.58
2023-04-12T07:26:23.899Z,18.38
2023-04-12T07:28:51.386Z,17.35
2023-04-12T07:31:18.497Z,18.30
2023-04-12T07:33:45.619Z,18.20
2023-04-12T07:36:12.776Z,18.02
2023-04-12T07:38:39.810Z,18.67
2023-04-12T07:41:06.722Z,18.52
2023-04-12T07:43:33.537Z,18.48
2023-04-12T07:46:04.510Z,19.75
2023-04-12T07:48:31.623Z,19.27
2023-04-12T07:50:58.422Z,18.58
2023-04-12T07:53:26.807Z,18.40
2023-04-12T07:55:55.535Z,18.88
2023-04-12T07:58:23.115Z,19.75
2023-04-12T08:00:50.389Z,19.25
2023-04-12T08:03:18.013Z,18.13
2023-04-12T08:05:45.112Z,18.25
2023-04-12T08:08:12.195Z,18.38
2023-04-12T08:10:39.385Z,17.25
2023-04-12T08:13:06.799Z,17.95
2023-04-12T08:15:34.156Z,18.90
2023-04-12T08:18:01.728Z,18.65
2023-04-12T08:20:29.312Z,17.80
2023-04-12T08:22:56.307Z,18.15
2023-04-12T08:25:23.271Z,19.20
2023-04-12T08:27:51.176Z,17.27
2023-04-12T08:30:42.295Z,17.10
2023-04-12T08:33:09.388Z,16.70
2023-04-12T08:35:36.254Z,16.80
2023-04-12T08:38:07.658Z,16.58
2023-04-12T08:40:35.536Z,16.70
2023-04-12T08:43:05.875Z,18.33
2023-04-12T08:45:35.242Z,18.02
2023-04-12T08:48:03.837Z,16.90
2023-04-12T08:50:30.698Z,18.42
2023-04-12T08:52:58.853Z,17.38
2023-04-12T08:55:25.716Z,17.60
2023-04-12T08:57:59.016Z,17.10
2023-04-12T09:00:26.398Z,16.67
2023-04-12T09:02:53.643Z,16.50
2023-04-12T09:05:23.220Z,16.60
2023-04-12T09:07:50.098Z,16.52
2023-04-12T09:10:33.416Z,15.48
2023-04-12T09:13:00.576Z,16.30
2023-04-12T09:15:27.849Z,16.17
2023-04-12T09:18:11.391Z,16.08
2023-04-12T09:20:39.325Z,16.00
2023-04-12T09:23:24.103Z,15.63
2023-04-12T09:25:53.447Z,16.02
2023-04-12T09:28:22.093Z,15.65
2023-04-12T09:30:51.994Z,14.88
2023-04-12T09:33:19.973Z,15.73
2023-04-12T09:35:47.314Z,15.10
2023-04-12T09:38:14.676Z,15.27
2023-04-12T09:40:41.597Z,15.80
2023-04-12T09:43:08.822Z,15.27
2023-04-12T09:45:39.022Z,15.52
2023-04-12T09:48:07.115Z,16.02
2023-04-12T09:50:34.234Z,16.02
2023-04-12T09:53:02.247Z,16.40
2023-04-12T09:55:31.943Z,15.90
2023-04-12T09:58:02.114Z,14.52
2023-04-12T10:00:30.492Z,16.08
2023-04-12T10:02:58.096Z,15.68
2023-04-12T10:05:26.978Z,15.52
2023-04-12T10:07:55.565Z,15.73
2023-04-12T10:10:25.131Z,15.18
2023-04-12T10:12:52.601Z,14.23
2023-04-12T10:15:23.380Z,14.95
2023-04-12T10:17:57.888Z,13.88
2023-04-12T10:20:28.507Z,14.82
2023-04-12T10:22:58.268Z,13.60
2023-04-12T10:25:27.282Z,13.32
2023-04-12T10:27:54.451Z,14.25
2023-04-12T10:30:28.485Z,13.55
2023-04-12T10:33:05.495Z,13.77
2023-04-12T13:02:46.223Z,15.35
2023-04-12T13:05:13.911Z,14.25
2023-04-12T13:07:44.385Z,15.07
2023-04-12T13:10:18.134Z,13.80
2023-04-12T13:12:46.116Z,14.52
2023-04-12T13:15:23.716Z,14.75
2023-04-12T13:18:04.201Z,15.30
2023-04-12T13:20:34.103Z,15.15
2023-04-12T13:23:06.669Z,14.40
2023-04-12T13:25:42.848Z,15.10
2023-04-12T13:28:18.805Z,14.35
2023-04-12T13:30:52.348Z,15.88
2023-04-12T13:33:22.312Z,16.15
2023-04-12T13:36:00.786Z,15.43
2023-04-12T13:38:36.187Z,14.82
2023-04-12T13:41:03.214Z,15.68
2023-04-12T13:43:35.847Z,17.15
2023-04-12T13:46:05.484Z,16.48
2023-04-12T13:48:49.995Z,16.23
2023-04-12T13:51:16.893Z,15.48
2023-04-12T13:53:47.934Z,15.45
2023-04-12T13:56:18.902Z,14.48
2023-04-12T13:58:53.450Z,15.65
2023-04-12T14:01:23.679Z,16.02
2023-04-12T14:03:55.250Z,16.05
2023-04-12T14:06:26.028Z,16.42
2023-04-12T14:08:53.341Z,17.27
2023-04-12T14:11:23.477Z,16.80
2023-04-12T14:13:57.497Z,17.15
2023-04-12T14:16:24.576Z,17.20
2023-04-12T14:18:59.640Z,17.98
2023-04-12T14:21:47.399Z,18.25
2023-04-12T14:24:21.318Z,17.38
2023-04-12T14:26:50.287Z,17.15
2023-04-12T14:29:20.478Z,17.98
2023-04-12T14:31:50.084Z,18.75
2023-04-12T14:34:26.894Z,18.85
2023-04-12T14:36:54.126Z,19.95
2023-04-12T14:39:23.782Z,19.20
2023-04-12T14:41:50.758Z,18.30
2023-04-12T14:44:20.781Z,18.02
2023-04-12T14:47:07.225Z,17.77
2023-04-12T14:49:36.548Z,17.45
2023-04-12T14:52:11.562Z,17.42
2023-04-12T14:54:38.967Z,16.17
2023-04-12T14:57:18.456Z,16.55
2023-04-12T14:59:48.845Z,16.10
2023-04-12T15:02:25.248Z,17.15
2023-04-12T15:04:59.178Z,17.20
2023-04-12T15:07:32.720Z,17.65
2023-04-12T15:09:59.856Z,17.50
2023-04-12T15:15:11.794Z,18.45
2023-04-12T15:17:45.258Z,17.80
2023-04-12T15:20:16.928Z,18.33
2023-04-12T15:22:55.122Z,18.67
2023-04-12T15:25:29.286Z,17.58
2023-04-12T15:28:01.203Z,17.48
2023-04-12T15:30:37.470Z,17.33
2023-04-12T15:33:07.654Z,18.85
2023-04-12T15:35:36.348Z,17.42
2023-04-12T15:38:15.107Z,17.45
2023-04-12T15:40:55.716Z,18.80
2023-04-12T15:43:23.282Z,18.85
2023-04-12T15:45:57.080Z,17.98
2023-04-12T15:48:29.950Z,18.90
2023-04-12T15:53:46.352Z,18.48
2023-04-12T15:56:35.809Z,19.40
2023-04-12T15:59:06.145Z,18.92
2023-04-12T16:01:36.742Z,19.38
2023-04-12T16:04:08.644Z,19.13
2023-04-12T16:06:38.534Z,17.58
2023-04-12T16:09:08.987Z,17.55
2023-04-12T16:11:39.682Z,19.00
2023-04-12T16:14:13.720Z,19.17
2023-04-12T16:16:42.021Z,17.90
2023-04-12T16:19:13.321Z,19.35
2023-04-12T16:21:44.592Z,19.13
2023-04-12T16:24:14.501Z,18.92
2023-04-12T16:29:37.906Z,19.38
2023-04-12T16:32:08.384Z,18.92
2023-04-12T16:34:43.430Z,18.30
2023-04-12T16:37:12.894Z,19.90
2023-04-12T16:39:50.292Z,18.83
2023-04-12T16:42:21.631Z,18.05
2023-04-12T16:45:01.090Z,18.45
2023-04-12T16:47:36.840Z,18.80
2023-04-12T16:50:09.539Z,18.80
2023-04-12T16:52:38.206Z,18.67
2023-04-12T16:55:11.930Z,18.42
2023-04-12T16:57:46.376Z,19.98
2023-04-12T17:00:31.505Z,19.05
2023-04-12T17:03:00.438Z,17.48
2023-04-12T17:05:32.708Z,17.95
2023-04-12T17:07:59.857Z,17.85
2023-04-12T17:10:31.422Z,17.83
2023-04-12T17:13:09.647Z,17.85
2023-04-12T17:15:37.141Z,16.83
2023-04-12T17:18:07.878Z,18.42
2023-04-12T17:20:36.394Z,16.90
2023-04-12T17:23:07.073Z,17.60
2023-04-12T17:25:39.385Z,16.70
2023-04-12T17:28:10.853Z,17.85
2023-04-12T17:30:48.829Z,17.15
2023-04-12T17:33:18.337Z,16.65
2023-04-12T17:35:47.894Z,17.35
2023-04-12T17:38:20.365Z,19.38
2023-04-12T17:40:56.549Z,16.23
2023-04-12T17:43:42.504Z,16.73
2023-04-12T17:46:39.678Z,17.55
2023-04-12T17:49:09.046Z,16.98
2023-04-12T17:51:36.566Z,17.35
2023-04-12T17:54:03.909Z,17.48
2023-04-12T17:56:42.226Z,17.40
2023-04-12T17:59:16.101Z,18.65
2023-04-12T18:01:43.440Z,17.75
2023-04-12T18:04:15.289Z,17.40
2023-04-12T18:06:50.612Z,17.27
2023-04-12T18:09:20.124Z,18.27
2023-04-12T18:11:49.843Z,18.10
2023-04-12T18:14:24.876Z,18.63
2023-04-12T18:17:04.490Z,18.50
2023-04-12T18:19:31.858Z,19.00
2023-04-12T18:22:07.089Z,19.02
2023-04-12T18:24:38.491Z,19.20
2023-04-12T18:27:16.232Z,20.35
2023-04-12T18:29:43.225Z,21.65
2023-04-12T18:32:10.638Z,20.02
2023-04-12T18:34:37.756Z,22.33
2023-04-12T18:37:06.413Z,19.98
2023-04-12T18:39:36.673Z,19.83
2023-04-12T18:42:03.971Z,21.63
2023-04-12T18:44:37.163Z,20.38
2023-04-12T18:47:44.753Z,19.48
2023-04-12T18:50:10.116Z,21.08
2023-04-12T18:52:41.638Z,21.08
2023-04-12T18:55:08.881Z,20.63
2023-04-12T18:57:36.057Z,23.23
2023-04-12T19:00:06.930Z,21.25
2023-04-12T19:02:34.465Z,21.33
2023-04-12T19:05:03.098Z,20.55
2023-04-12T19:07:30.189Z,21.77
2023-04-12T19:09:57.891Z,22.80
2023-04-12T19:12:25.009Z,22.80
2023-04-12T19:14:52.857Z,22.33
2023-04-12T19:17:25.695Z,25.13
2023-04-12T19:20:02.202Z,26.13
2023-04-12T19:22:35.103Z,23.92
2023-04-12T19:25:08.414Z,23.65
2023-04-12T19:27:36.927Z,24.80
2023-04-12T19:30:11.596Z,24.48
2023-04-12T19:32:42.622Z,26.02
2023-04-12T19:35:10.706Z,25.92
2023-04-12T19:37:39.460Z,26.00
2023-04-12T19:40:10.236Z,26.63
2023-04-12T19:42:37.626Z,26.02
2023-04-12T19:45:09.374Z,26.08
2023-04-12T19:47:44.814Z,27.92
2023-04-12T19:50:18.621Z,26.83
2023-04-12T19:52:48.185Z,26.45
2023-04-12T19:55:16.850Z,26.92
2023-04-12T19:57:48.703Z,27.70
2023-04-12T20:00:20.673Z,26.10
2023-04-12T20:02:51.401Z,25.92
2023-04-12T20:05:26.175Z,24.50
2023-04-12T20:07:59.445Z,25.88
2023-04-12T20:12:56.211Z,25.30
2023-04-12T20:15:24.246Z,27.17
2023-04-12T20:17:53.458Z,26.00
2023-04-12T20:20:22.245Z,26.17
2023-04-12T20:22:55.041Z,26.75
2023-04-12T20:25:28.046Z,26.38
2023-04-12T20:27:56.838Z,28.45
2023-04-12T20:30:29.141Z,26.95
2023-04-12T20:32:56.413Z,28.67
2023-04-12T20:35:27.349Z,29.10
2023-04-12T20:37:57.606Z,28.65
2023-04-12T20:40:30.435Z,27.30
2023-04-12T20:42:58.437Z,27.35
2023-04-12T20:45:26.629Z,29.83
2023-04-12T20:47:56.775Z,29.02
2023-04-12T20:50:27.584Z,29.27
2023-04-12T20:52:56.286Z,30.08
2023-04-12T20:55:29.123Z,29.48
2023-04-12T20:57:57.359Z,29.92
2023-04-12T21:00:25.724Z,31.00
2023-04-12T21:02:54.973Z,30.52
2023-04-12T21:05:22.541Z,30.83
2023-04-12T21:07:50.317Z,30.80
2023-04-12T21:10:19.206Z,30.42
2023-04-12T21:12:47.361Z,28.27
2023-04-12T21:15:15.700Z,30.17
2023-04-12T21:17:43.361Z,29.27
2023-04-12T21:20:14.239Z,29.33
2023-04-12T21:22:43.081Z,28.63
2023-04-12T21:25:13.845Z,29.85
2023-04-12T21:27:43.525Z,30.30
2023-04-12T21:30:12.078Z,30.70
2023-04-12T21:32:39.489Z,29.85
2023-04-12T21:35:07.472Z,30.80
2023-04-12T21:37:35.914Z,29.17
2023-04-12T21:40:07.678Z,29.02
2023-04-12T21:42:37.268Z,27.73
2023-04-12T21:45:04.757Z,28.65
2023-04-12T21:47:34.613Z,27.92
2023-04-12T21:50:02.329Z,24.83
2023-04-12T21:52:29.123Z,26.65
2023-04-12T21:54:55.944Z,23.70
2023-04-12T21:57:22.976Z,23.27
2023-04-12T21:59:49.867Z,21.67
2023-04-12T22:02:17.212Z,20.88
2023-04-12T22:04:44.689Z,21.58
2023-04-12T22:07:13.139Z,20.25
2023-04-12T22:09:41.592Z,19.48
2023-04-12T22:12:08.866Z,20.38
2023-04-12T22:14:36.644Z,19.25
2023-04-12T22:17:04.043Z,17.25
2023-04-12T22:19:30.937Z,16.88
2023-04-12T22:21:57.889Z,17.02
2023-04-12T22:24:26.200Z,15.60
2023-04-12T22:26:56.256Z,15.48
2023-04-12T22:29:24.352Z,14.90
2023-04-12T22:31:51.410Z,14.27
2023-04-12T22:34:18.418Z,13.95
2023-04-12T22:36:47.311Z,13.88
2023-04-12T22:39:15.587Z,11.75
2023-04-12T22:41:42.758Z,11.68
2023-04-12T22:44:10.705Z,11.90
2023-04-12T22:46:39.209Z,11.05
2023-04-12T22:49:06.092Z,11.13
2023-04-12T22:51:33.290Z,10.80
2023-04-12T22:54:00.448Z,10.48
2023-04-12T22:56:29.252Z,10.07
2023-04-12T22:58:56.481Z,10.05
2023-04-12T23:01:23.740Z,9.90
2023-04-12T23:03:50.720Z,10.00
2023-04-12T23:06:19.688Z,10.02
2023-04-12T23:08:46.933Z,9.93
2023-04-12T23:11:14.443Z,10.30
2023-04-12T23:13:41.232Z,9.23
2023-04-12T23:16:08.430Z,9.43
2023-04-12T23:18:36.007Z,10.02
2023-04-12T23:21:04.316Z,10.63
2023-04-12T23:23:31.891Z,10.93
2023-04-12T23:25:59.454Z,10.80
2023-04-12T23:28:26.700Z,11.35
2023-04-12T23:30:54.218Z,11.10
2023-04-12T23:33:21.502Z,11.15
2023-04-12T23:35:52.896Z,11.43
2023-04-12T23:38:24.365Z,11.25
2023-04-12T23:40:53.928Z,10.63
2023-04-12T23:43:21.589Z,10.77
2023-04-12T23:45:48.795Z,10.77
2023-04-12T23:48:16.677Z,10.48
2023-04-12T23:50:46.236Z,10.40
2023-04-12T23:53:13.209Z,10.45
2023-04-12T23:55:41.372Z,10.77
2023-04-12T23:58:08.702Z,10.60
